Time;durP1;ratioP1;P1;durP2;ratioP2;P2;SDS_P1;SDS_P2;PMS_P1;PMS_P2;Temp;Humidity;BMP_temperature;BMP_pressure;BME280_temperature;BME280_humidity;BME280_pressure;Samples;Min_cycle;Max_cycle;Signal;HPM_P1;HPM_P2
2022/08/31 00:06:10;;;;;;;3.10;0.50;;;;;;;;;;5084403;28;20039;-66
2022/08/31 00:08:35;;;;;;;1.10;0.50;;;;;;;;;;5086471;28;20040;-67
2022/08/31 00:11:01;;;;;;;1.13;0.60;;;;;;;;;;5083902;28;20028;-67
2022/08/31 00:13:27;;;;;;;0.70;0.40;;;;;;;;;;5085164;28;20368;-66
2022/08/31 00:15:52;;;;;;;0.83;0.40;;;;;;;;;;5082122;28;20418;-67
2022/08/31 00:18:18;;;;;;;4.97;0.63;;;;;;;;;;5085991;28;20028;-66
2022/08/31 00:20:44;;;;;;;2.33;0.50;;;;;;;;;;5087310;28;20031;-66
2022/08/31 00:23:11;;;;;;;1.53;0.57;;;;;;;;;;5086979;28;20024;-66
2022/08/31 00:25:37;;;;;;;1.63;0.60;;;;;;;;;;5084677;28;20031;-66
2022/08/31 00:28:02;;;;;;;1.10;0.47;;;;;;;;;;5078830;28;20024;-66
2022/08/31 00:30:28;;;;;;;1.77;0.60;;;;;;;;;;5087377;28;20035;-66
2022/08/31 00:32:54;;;;;;;1.10;0.60;;;;;;;;;;5084665;28;20828;-66
2022/08/31 00:35:19;;;;;;;1.60;0.60;;;;;;;;;;5081853;28;20031;-67
2022/08/31 00:37:44;;;;;;;0.77;0.40;;;;;;;;;;5086994;28;20032;-66
2022/08/31 00:40:10;;;;;;;1.60;0.70;;;;;;;;;;5088718;28;20019;-66
2022/08/31 00:42:35;;;;;;;1.50;0.50;;;;;;;;;;5085729;28;20024;-66
2022/08/31 00:45:00;;;;;;;0.80;0.50;;;;;;;;;;5086507;28;20024;-66
2022/08/31 00:47:26;;;;;;;4.63;0.50;;;;;;;;;;5082919;28;20035;-66
2022/08/31 00:49:51;;;;;;;1.37;0.43;;;;;;;;;;5085644;28;20035;-66
2022/08/31 00:52:19;;;;;;;1.17;0.50;;;;;;;;;;5088886;28;20020;-66
2022/08/31 00:54:50;;;;;;;1.00;0.40;;;;;;;;;;5090326;28;20016;-66
2022/08/31 00:57:15;;;;;;;0.98;0.60;;;;;;;;;;5088818;28;20089;-66
2022/08/31 00:59:42;;;;;;;0.80;0.50;;;;;;;;;;5087339;28;20428;-65
2022/08/31 01:02:08;;;;;;;1.03;0.50;;;;;;;;;;5088590;28;20115;-66
2022/08/31 01:04:33;;;;;;;2.30;0.50;;;;;;;;;;5090462;28;20261;-66
2022/08/31 01:06:59;;;;;;;2.00;0.50;;;;;;;;;;5089424;28;20035;-66
2022/08/31 01:09:25;;;;;;;1.13;0.50;;;;;;;;;;5088210;28;20048;-66
2022/08/31 01:11:50;;;;;;;4.13;1.00;;;;;;;;;;5088231;28;20027;-64
2022/08/31 01:14:16;;;;;;;1.20;0.60;;;;;;;;;;5088009;28;20023;-65
2022/08/31 01:16:44;;;;;;;1.87;0.67;;;;;;;;;;5087930;28;20470;-65
2022/08/31 01:19:15;;;;;;;0.97;0.50;;;;;;;;;;5088570;28;20039;-65
2022/08/31 01:21:43;;;;;;;2.63;0.60;;;;;;;;;;5089390;28;20426;-65
2022/08/31 01:24:09;;;;;;;1.60;0.40;;;;;;;;;;5090079;28;20649;-65
2022/08/31 01:26:36;;;;;;;1.20;0.60;;;;;;;;;;5086425;28;20048;-65
2022/08/31 01:29:03;;;;;;;1.40;0.90;;;;;;;;;;5087251;28;20020;-65
2022/08/31 01:31:33;;;;;;;1.43;0.60;;;;;;;;;;5090984;28;20082;-65
2022/08/31 01:33:58;;;;;;;1.70;0.70;;;;;;;;;;5088876;28;20020;-65
2022/08/31 01:36:24;;;;;;;0.80;0.50;;;;;;;;;;5087385;28;20020;-64
2022/08/31 01:38:50;;;;;;;1.60;0.60;;;;;;;;;;5090327;28;20387;-65
2022/08/31 01:41:15;;;;;;;2.77;0.60;;;;;;;;;;5086441;28;20028;-65
2022/08/31 01:43:40;;;;;;;1.83;0.70;;;;;;;;;;5091811;28;20067;-65
2022/08/31 01:46:08;;;;;;;2.13;0.80;;;;;;;;;;5087706;28;20460;-65
2022/08/31 01:48:33;;;;;;;1.43;0.60;;;;;;;;;;5089241;28;20402;-65
2022/08/31 01:50:58;;;;;;;2.00;0.80;;;;;;;;;;5091759;28;20020;-65
2022/08/31 01:53:24;;;;;;;2.47;0.70;;;;;;;;;;5087822;28;20020;-65
2022/08/31 01:55:49;;;;;;;1.43;0.73;;;;;;;;;;5088911;28;20078;-65
2022/08/31 01:58:14;;;;;;;1.07;0.70;;;;;;;;;;5091007;28;20016;-65
2022/08/31 02:00:39;;;;;;;1.40;0.70;;;;;;;;;;5088753;28;20046;-65
2022/08/31 02:03:06;;;;;;;2.10;0.80;;;;;;;;;;5087522;28;20558;-65
2022/08/31 02:05:32;;;;;;;1.30;0.60;;;;;;;;;;5089843;28;20024;-65
2022/08/31 02:07:57;;;;;;;1.33;0.70;;;;;;;;;;5091451;28;20036;-65
2022/08/31 02:10:23;;;;;;;1.20;0.60;;;;;;;;;;5088024;28;20353;-65
2022/08/31 02:12:49;;;;;;;2.17;0.80;;;;;;;;;;5087447;28;20031;-65
2022/08/31 02:15:14;;;;;;;1.40;0.70;;;;;;;;;;5087011;28;20464;-65
2022/08/31 02:17:39;;;;;;;2.80;0.80;;;;;;;;;;5091101;28;20036;-65
2022/08/31 02:20:06;;;;;;;1.40;0.70;;;;;;;;;;5088561;28;20190;-65
2022/08/31 02:22:31;;;;;;;2.70;0.80;;;;;;;;;;5085879;28;20028;-65
2022/08/31 02:24:56;;;;;;;2.20;0.90;;;;;;;;;;5088790;28;20564;-65
2022/08/31 02:27:22;;;;;;;1.53;0.80;;;;;;;;;;5089248;28;20024;-65
2022/08/31 02:29:47;;;;;;;1.47;0.70;;;;;;;;;;5090009;28;20059;-65
2022/08/31 02:32:12;;;;;;;1.13;0.70;;;;;;;;;;5089044;28;20030;-65
2022/08/31 02:34:39;;;;;;;1.27;0.70;;;;;;;;;;5090412;28;20034;-65
2022/08/31 02:37:05;;;;;;;4.23;0.90;;;;;;;;;;5089960;28;20024;-65
2022/08/31 02:39:30;;;;;;;2.40;0.90;;;;;;;;;;5091032;28;20031;-65
2022/08/31 02:41:55;;;;;;;4.37;0.80;;;;;;;;;;5086929;28;20027;-65
2022/08/31 02:44:20;;;;;;;2.27;0.93;;;;;;;;;;5088061;28;20032;-65
2022/08/31 02:46:45;;;;;;;2.43;0.90;;;;;;;;;;5088577;28;20024;-65
2022/08/31 02:49:11;;;;;;;3.77;0.80;;;;;;;;;;5086136;28;20026;-65
2022/08/31 02:51:40;;;;;;;4.03;1.57;;;;;;;;;;5090130;28;20081;-65
2022/08/31 02:54:05;;;;;;;2.30;0.93;;;;;;;;;;5085669;28;20020;-65
2022/08/31 02:56:30;;;;;;;2.73;0.90;;;;;;;;;;5086286;28;20016;-65
2022/08/31 02:58:56;;;;;;;4.53;0.97;;;;;;;;;;5088825;28;20032;-65
2022/08/31 03:01:22;;;;;;;2.07;0.90;;;;;;;;;;5085844;28;20023;-65
2022/08/31 03:03:47;;;;;;;3.03;1.00;;;;;;;;;;5089009;28;20115;-65
2022/08/31 03:06:12;;;;;;;3.10;0.83;;;;;;;;;;5091106;28;20587;-65
2022/08/31 03:08:38;;;;;;;5.10;1.13;;;;;;;;;;5088592;28;20043;-65
2022/08/31 03:11:03;;;;;;;4.63;1.10;;;;;;;;;;5088050;28;20495;-65
2022/08/31 03:13:29;;;;;;;2.87;0.93;;;;;;;;;;5087958;28;20020;-65
2022/08/31 03:15:54;;;;;;;3.07;1.00;;;;;;;;;;5088745;28;20512;-65
2022/08/31 03:18:19;;;;;;;2.73;1.00;;;;;;;;;;5088320;28;20511;-66
2022/08/31 03:20:44;;;;;;;4.47;1.00;;;;;;;;;;5085453;28;20074;-65
2022/08/31 03:23:11;;;;;;;6.43;1.00;;;;;;;;;;5088893;28;20116;-65
2022/08/31 03:25:36;;;;;;;1.90;1.00;;;;;;;;;;5085385;28;20063;-66
2022/08/31 03:28:01;;;;;;;2.90;1.10;;;;;;;;;;5088161;28;20096;-65
2022/08/31 03:30:27;;;;;;;3.17;1.20;;;;;;;;;;5085259;28;20020;-65
2022/08/31 03:32:52;;;;;;;5.00;1.27;;;;;;;;;;5088080;28;20024;-65
2022/08/31 03:35:18;;;;;;;4.90;1.20;;;;;;;;;;5087419;28;20051;-65
2022/08/31 03:37:43;;;;;;;5.83;1.07;;;;;;;;;;5083571;28;20468;-65
2022/08/31 03:40:09;;;;;;;2.87;1.07;;;;;;;;;;5083187;28;20476;-65
2022/08/31 03:42:34;;;;;;;2.37;1.10;;;;;;;;;;5089730;28;20526;-65
2022/08/31 03:44:59;;;;;;;3.33;1.13;;;;;;;;;;5084809;28;20103;-65
2022/08/31 03:47:24;;;;;;;5.13;1.40;;;;;;;;;;5070193;28;20020;-65
2022/08/31 03:49:50;;;;;;;4.23;1.20;;;;;;;;;;5086996;28;20024;-65
2022/08/31 03:52:15;;;;;;;4.03;1.20;;;;;;;;;;5085087;28;20425;-65
2022/08/31 03:54:42;;;;;;;6.10;1.30;;;;;;;;;;5086988;28;20020;-65
2022/08/31 03:57:07;;;;;;;2.70;1.30;;;;;;;;;;5086549;28;20020;-66
2022/08/31 03:59:33;;;;;;;4.83;1.20;;;;;;;;;;5088084;28;20028;-65
2022/08/31 04:01:58;;;;;;;2.83;1.17;;;;;;;;;;5085957;28;20110;-65
2022/08/31 04:04:23;;;;;;;4.53;1.23;;;;;;;;;;5089695;28;20028;-65
2022/08/31 04:06:48;;;;;;;4.63;1.30;;;;;;;;;;5088687;28;20483;-65
2022/08/31 04:09:14;;;;;;;3.93;1.10;;;;;;;;;;5088349;28;20046;-65
2022/08/31 04:11:40;;;;;;;2.47;1.20;;;;;;;;;;5085689;28;20085;-65
2022/08/31 04:14:05;;;;;;;3.83;1.30;;;;;;;;;;5087137;28;20069;-65
2022/08/31 04:16:31;;;;;;;5.60;1.40;;;;;;;;;;5085104;28;20016;-65
2022/08/31 04:18:56;;;;;;;3.13;1.30;;;;;;;;;;5085114;28;20797;-65
2022/08/31 04:21:23;;;;;;;4.97;1.27;;;;;;;;;;5085795;28;20560;-65
2022/08/31 04:23:49;;;;;;;7.27;1.70;;;;;;;;;;5087773;28;20024;-66
2022/08/31 04:26:34;;;;;;;4.43;1.20;;;;;;;;;;5067855;28;20034;-66
2022/08/31 04:28:59;;;;;;;3.00;1.30;;;;;;;;;;5087631;28;20020;-66
2022/08/31 04:31:25;;;;;;;3.33;1.13;;;;;;;;;;5087660;28;20058;-65
2022/08/31 04:33:50;;;;;;;3.23;1.40;;;;;;;;;;5086051;28;20468;-65
2022/08/31 04:36:20;;;;;;;6.57;1.77;;;;;;;;;;5086217;28;20028;-65
2022/08/31 04:38:46;;;;;;;3.97;1.70;;;;;;;;;;5088317;28;20085;-66
2022/08/31 04:41:12;;;;;;;3.33;1.20;;;;;;;;;;5085246;28;20074;-65
2022/08/31 04:43:38;;;;;;;4.47;1.33;;;;;;;;;;5085185;28;20067;-66
2022/08/31 04:46:04;;;;;;;3.53;1.40;;;;;;;;;;5088392;28;20032;-66
2022/08/31 04:48:30;;;;;;;3.67;1.10;;;;;;;;;;5085103;28;20039;-66
2022/08/31 04:50:59;;;;;;;3.30;1.30;;;;;;;;;;5084750;28;20063;-65
2022/08/31 04:53:24;;;;;;;3.30;1.37;;;;;;;;;;5084578;28;20012;-66
2022/08/31 04:55:49;;;;;;;5.93;1.50;;;;;;;;;;5082626;28;20118;-66
2022/08/31 04:58:16;;;;;;;4.30;1.40;;;;;;;;;;5087743;28;20053;-66
2022/08/31 05:00:42;;;;;;;5.47;1.40;;;;;;;;;;5083486;28;20093;-66
2022/08/31 05:03:07;;;;;;;4.70;1.37;;;;;;;;;;5082973;28;20031;-67
2022/08/31 05:05:36;;;;;;;3.27;1.33;;;;;;;;;;5087923;28;20455;-66
2022/08/31 05:08:01;;;;;;;3.67;1.47;;;;;;;;;;5082314;28;20012;-66
2022/08/31 05:10:26;;;;;;;4.60;1.47;;;;;;;;;;5081091;28;20772;-66
2022/08/31 05:12:52;;;;;;;3.00;1.30;;;;;;;;;;5078938;28;20020;-66
2022/08/31 05:15:17;;;;;;;5.30;1.43;;;;;;;;;;5076741;28;20032;-66
2022/08/31 05:17:42;;;;;;;4.33;1.27;;;;;;;;;;5085538;28;20109;-66
2022/08/31 05:20:08;;;;;;;5.03;1.30;;;;;;;;;;5084916;28;20697;-66
2022/08/31 05:22:33;;;;;;;4.00;1.40;;;;;;;;;;5086948;28;20498;-66
2022/08/31 05:24:58;;;;;;;3.03;1.20;;;;;;;;;;5088682;28;20024;-66
2022/08/31 05:27:23;;;;;;;5.27;1.40;;;;;;;;;;5080846;28;20380;-67
2022/08/31 05:29:49;;;;;;;2.60;1.30;;;;;;;;;;5078343;28;20035;-67
2022/08/31 05:32:14;;;;;;;2.47;1.23;;;;;;;;;;5089699;28;20028;-69
2022/08/31 05:34:39;;;;;;;3.60;1.30;;;;;;;;;;5090829;28;20012;-67
2022/08/31 05:37:05;;;;;;;2.30;1.27;;;;;;;;;;5087880;28;20059;-67
2022/08/31 05:39:32;;;;;;;3.93;1.40;;;;;;;;;;5083012;28;20012;-66
2022/08/31 05:41:57;;;;;;;4.37;1.37;;;;;;;;;;5086644;28;21660;-66
2022/08/31 05:44:23;;;;;;;2.83;1.27;;;;;;;;;;5081722;28;20120;-67
2022/08/31 05:46:48;;;;;;;2.97;1.40;;;;;;;;;;5084952;28;20040;-67
2022/08/31 05:49:13;;;;;;;5.83;1.50;;;;;;;;;;5091044;28;20028;-67
2022/08/31 05:51:39;;;;;;;3.60;1.33;;;;;;;;;;5092605;28;20547;-66
2022/08/31 05:54:05;;;;;;;3.70;1.50;;;;;;;;;;5079556;28;20384;-66
2022/08/31 05:56:30;;;;;;;6.27;1.90;;;;;;;;;;5087819;28;20070;-67
2022/08/31 05:58:56;;;;;;;7.37;1.80;;;;;;;;;;5091538;28;20035;-66
2022/08/31 06:01:32;;;;;;;4.10;1.80;;;;;;;;;;5083331;28;20028;-67
2022/08/31 06:03:58;;;;;;;3.90;1.73;;;;;;;;;;5080777;28;20029;-67
2022/08/31 06:06:23;;;;;;;6.68;1.85;;;;;;;;;;5091692;28;20464;-67
2022/08/31 06:08:51;;;;;;;7.85;1.40;;;;;;;;;;5081101;28;20027;-67
2022/08/31 06:11:18;;;;;;;4.95;1.45;;;;;;;;;;5091020;28;20073;-67
2022/08/31 06:13:47;;;;;;;4.50;1.38;;;;;;;;;;5087202;28;20020;-67
2022/08/31 06:16:12;;;;;;;3.55;1.20;;;;;;;;;;5092601;28;20121;-67
2022/08/31 06:18:39;;;;;;;2.90;1.13;;;;;;;;;;5091158;28;20543;-67
2022/08/31 06:21:11;;;;;;;2.42;1.10;;;;;;;;;;5092766;28;20028;-67
2022/08/31 06:23:37;;;;;;;5.25;1.10;;;;;;;;;;5092912;28;20137;-67
2022/08/31 06:26:06;;;;;;;2.47;0.95;;;;;;;;;;5093551;28;20054;-67
2022/08/31 06:28:32;;;;;;;5.18;1.10;;;;;;;;;;5074664;28;20032;-68
2022/08/31 06:30:58;;;;;;;4.32;1.08;;;;;;;;;;5087575;28;20027;-67
2022/08/31 06:33:24;;;;;;;2.38;0.88;;;;;;;;;;5092242;28;20020;-67
2022/08/31 06:35:50;;;;;;;2.70;0.80;;;;;;;;;;5106308;28;20515;-67
2022/08/31 06:38:15;;;;;;;3.05;1.00;;;;;;;;;;5076008;28;20020;-67
2022/08/31 06:40:40;;;;;;;2.45;1.02;;;;;;;;;;5080286;28;20031;-67
2022/08/31 06:43:06;;;;;;;5.20;0.90;;;;;;;;;;5080708;28;20537;-67
2022/08/31 06:45:31;;;;;;;3.20;1.27;;;;;;;;;;5079790;28;20021;-67
2022/08/31 06:47:59;;;;;;;2.30;0.90;;;;;;;;;;5091793;28;20111;-67
2022/08/31 06:50:24;;;;;;;6.72;1.60;;;;;;;;;;5092637;28;20020;-68
2022/08/31 06:52:50;;;;;;;3.30;1.00;;;;;;;;;;5091480;28;20028;-67
2022/08/31 06:55:15;;;;;;;4.35;1.00;;;;;;;;;;5081519;28;20067;-67
2022/08/31 06:57:40;;;;;;;2.10;0.85;;;;;;;;;;5074702;28;20020;-67
2022/08/31 07:00:06;;;;;;;4.10;0.93;;;;;;;;;;5072334;28;20031;-67
2022/08/31 07:02:32;;;;;;;2.22;0.77;;;;;;;;;;5091065;28;20476;-68
2022/08/31 07:04:57;;;;;;;2.55;0.98;;;;;;;;;;5090497;28;20038;-67
2022/08/31 07:07:22;;;;;;;3.53;0.93;;;;;;;;;;5091620;28;20547;-67
2022/08/31 07:09:47;;;;;;;2.90;0.95;;;;;;;;;;5093825;28;20058;-66
2022/08/31 07:12:13;;;;;;;3.15;0.70;;;;;;;;;;5088523;28;20047;-67
2022/08/31 07:14:38;;;;;;;3.90;1.00;;;;;;;;;;5090858;28;20024;-67
2022/08/31 07:17:03;;;;;;;3.05;0.98;;;;;;;;;;5084082;28;20388;-67
2022/08/31 07:19:29;;;;;;;4.75;0.90;;;;;;;;;;5090171;28;20027;-68
2022/08/31 07:21:56;;;;;;;2.10;0.75;;;;;;;;;;5081488;28;20132;-68
2022/08/31 07:24:23;;;;;;;2.38;0.73;;;;;;;;;;5086783;28;20201;-69
2022/08/31 07:27:08;;;;;;;4.15;0.90;;;;;;;;;;5082912;28;20028;-69
2022/08/31 07:29:39;;;;;;;5.55;1.52;;;;;;;;;;5084753;28;20140;-68
2022/08/31 07:32:05;;;;;;;3.10;0.90;;;;;;;;;;5092263;28;20480;-68
2022/08/31 07:34:32;;;;;;;3.65;1.02;;;;;;;;;;5095580;28;20016;-68
2022/08/31 07:42:27;;;;;;;5.05;1.20;;;;;;;;;;5082481;28;20046;-68
2022/08/31 07:44:53;;;;;;;3.25;0.80;;;;;;;;;;5084701;28;20028;-69
2022/08/31 07:47:19;;;;;;;3.03;0.80;;;;;;;;;;5091645;28;20373;-69
2022/08/31 07:49:50;;;;;;;4.03;0.80;;;;;;;;;;5072530;28;20593;-69
2022/08/31 07:52:20;;;;;;;1.52;0.70;;;;;;;;;;5084538;28;20067;-69
2022/08/31 07:54:45;;;;;;;2.42;0.77;;;;;;;;;;5082796;28;20028;-68
2022/08/31 07:57:12;;;;;;;2.80;0.80;;;;;;;;;;5074081;28;20024;-67
2022/08/31 07:59:38;;;;;;;1.77;0.75;;;;;;;;;;5084180;28;20024;-67
2022/08/31 08:02:03;;;;;;;3.97;0.90;;;;;;;;;;5090502;28;20218;-67
2022/08/31 08:04:29;;;;;;;3.55;0.73;;;;;;;;;;5080867;28;20039;-69
2022/08/31 08:06:55;;;;;;;1.60;0.57;;;;;;;;;;5075479;28;20461;-70
2022/08/31 08:09:21;;;;;;;2.13;0.80;;;;;;;;;;5088540;28;20020;-68
2022/08/31 08:11:48;;;;;;;3.75;0.95;;;;;;;;;;5088100;28;20020;-69
2022/08/31 08:14:13;;;;;;;5.25;1.35;;;;;;;;;;5090757;28;20070;-68
2022/08/31 08:16:39;;;;;;;3.05;0.60;;;;;;;;;;5091068;28;20028;-68
2022/08/31 08:19:04;;;;;;;1.58;0.70;;;;;;;;;;5087039;28;20029;-70
2022/08/31 08:21:29;;;;;;;2.47;0.70;;;;;;;;;;5091275;28;20016;-70
2022/08/31 08:23:55;;;;;;;3.53;1.00;;;;;;;;;;5090219;28;20039;-67
2022/08/31 08:26:20;;;;;;;1.65;0.70;;;;;;;;;;5090715;28;20024;-69
2022/08/31 08:28:46;;;;;;;2.42;0.80;;;;;;;;;;5071722;28;20047;-69
2022/08/31 08:31:16;;;;;;;1.70;0.68;;;;;;;;;;5079819;28;20020;-69
2022/08/31 08:33:42;;;;;;;4.45;1.20;;;;;;;;;;5088325;28;20115;-71
2022/08/31 08:36:07;;;;;;;2.22;0.73;;;;;;;;;;5091584;28;20119;-69
2022/08/31 08:38:33;;;;;;;8.65;1.65;;;;;;;;;;5087683;28;20070;-67
2022/08/31 08:41:00;;;;;;;1.92;0.63;;;;;;;;;;5090382;28;20024;-69
2022/08/31 08:43:32;;;;;;;1.75;0.60;;;;;;;;;;5087283;28;20422;-68
2022/08/31 08:46:01;;;;;;;2.33;0.80;;;;;;;;;;5091206;28;20022;-68
2022/08/31 08:48:27;;;;;;;2.15;0.68;;;;;;;;;;5083382;28;20032;-67
2022/08/31 08:50:53;;;;;;;2.40;0.70;;;;;;;;;;5074540;28;20419;-68
2022/08/31 08:53:20;;;;;;;5.20;0.80;;;;;;;;;;5085220;28;20078;-68
2022/08/31 08:55:46;;;;;;;1.90;0.90;;;;;;;;;;5090435;28;20020;-69
2022/08/31 08:58:12;;;;;;;1.50;0.50;;;;;;;;;;5079954;28;20036;-69
2022/08/31 09:00:40;;;;;;;2.17;0.57;;;;;;;;;;5079129;28;20025;-69
2022/08/31 09:03:19;;;;;;;8.52;0.80;;;;;;;;;;5082051;28;20033;-67
2022/08/31 09:05:48;;;;;;;1.75;0.75;;;;;;;;;;5085727;28;20480;-68
2022/08/31 09:08:22;;;;;;;2.45;0.70;;;;;;;;;;5077716;28;20025;-70
2022/08/31 09:11:06;;;;;;;2.10;0.70;;;;;;;;;;5090065;28;20031;-68
2022/08/31 09:13:41;;;;;;;2.40;0.60;;;;;;;;;;5090503;28;20034;-68
2022/08/31 09:16:16;;;;;;;2.42;0.60;;;;;;;;;;5097689;28;20098;-69
2022/08/31 09:18:48;;;;;;;5.97;0.90;;;;;;;;;;5114867;28;20034;-68
2022/08/31 09:21:21;;;;;;;1.92;0.68;;;;;;;;;;5112622;28;20456;-67
2022/08/31 09:24:01;;;;;;;1.88;0.70;;;;;;;;;;5084092;28;20025;-68
2022/08/31 09:26:34;;;;;;;4.63;0.70;;;;;;;;;;5083312;28;20024;-68
2022/08/31 09:29:02;;;;;;;2.08;0.70;;;;;;;;;;5077518;28;20119;-70
2022/08/31 09:31:36;;;;;;;2.80;0.68;;;;;;;;;;5074429;28;20358;-69
2022/08/31 09:34:02;;;;;;;1.70;0.70;;;;;;;;;;5091130;28;20111;-69
2022/08/31 09:36:32;;;;;;;3.15;0.80;;;;;;;;;;5092065;28;20023;-68
2022/08/31 09:39:12;;;;;;;5.23;1.03;;;;;;;;;;5074383;28;20025;-67
2022/08/31 09:41:37;;;;;;;2.85;0.80;;;;;;;;;;5079156;28;20461;-67
2022/08/31 09:44:21;;;;;;;1.60;0.60;;;;;;;;;;5079145;28;20024;-68
2022/08/31 09:46:47;;;;;;;4.00;0.80;;;;;;;;;;5093739;28;20019;-67
2022/08/31 09:49:25;;;;;;;1.85;0.73;;;;;;;;;;5094174;28;20039;-68
2022/08/31 09:51:51;;;;;;;1.58;0.60;;;;;;;;;;5089040;28;20031;-68
2022/08/31 09:57:08;;;;;;;3.20;0.80;;;;;;;;;;5081514;28;20082;-68
2022/08/31 09:59:38;;;;;;;3.45;0.80;;;;;;;;;;5086899;28;20039;-67
2022/08/31 10:02:24;;;;;;;6.35;0.73;;;;;;;;;;5092920;28;20076;-68
2022/08/31 10:04:59;;;;;;;4.50;0.68;;;;;;;;;;5093069;28;20035;-68
2022/08/31 10:07:27;;;;;;;1.67;0.70;;;;;;;;;;5092020;28;20028;-69
2022/08/31 10:09:55;;;;;;;1.77;0.65;;;;;;;;;;5093370;28;20523;-71
2022/08/31 10:12:29;;;;;;;2.22;0.80;;;;;;;;;;5089136;28;20019;-68
2022/08/31 10:15:02;;;;;;;1.23;0.60;;;;;;;;;;5074311;28;20526;-68
2022/08/31 10:17:36;;;;;;;2.38;0.65;;;;;;;;;;5084276;28;20023;-69
2022/08/31 10:20:05;;;;;;;5.82;0.80;;;;;;;;;;5089455;28;20016;-68
2022/08/31 10:22:35;;;;;;;2.72;0.70;;;;;;;;;;5090633;28;20023;-68
2022/08/31 10:25:11;;;;;;;3.10;0.70;;;;;;;;;;5091045;28;20054;-68
2022/08/31 10:27:48;;;;;;;3.78;0.70;;;;;;;;;;5088875;28;20282;-69
2022/08/31 10:30:40;;;;;;;3.50;0.80;;;;;;;;;;5090959;28;20035;-69
2022/08/31 10:33:08;;;;;;;3.53;0.80;;;;;;;;;;5090113;28;20079;-67
2022/08/31 10:35:46;;;;;;;1.45;0.57;;;;;;;;;;5056280;28;20052;-67
2022/08/31 10:38:25;;;;;;;3.58;0.70;;;;;;;;;;5082752;28;20024;-66
2022/08/31 10:40:58;;;;;;;1.20;0.50;;;;;;;;;;5093302;28;20095;-69
2022/08/31 10:43:28;;;;;;;5.13;0.73;;;;;;;;;;5083963;28;20442;-67
2022/08/31 10:45:53;;;;;;;4.50;0.82;;;;;;;;;;5085318;28;20028;-66
2022/08/31 10:48:20;;;;;;;3.10;0.60;;;;;;;;;;5080875;28;20028;-67
2022/08/31 10:50:56;;;;;;;2.10;0.50;;;;;;;;;;5072563;28;20021;-69
2022/08/31 10:53:21;;;;;;;3.88;0.85;;;;;;;;;;5084106;28;20372;-68
2022/08/31 10:55:55;;;;;;;2.42;0.70;;;;;;;;;;5072997;28;20200;-67
2022/08/31 10:58:20;;;;;;;2.83;0.95;;;;;;;;;;5082619;28;20458;-68
2022/08/31 11:00:53;;;;;;;2.00;0.70;;;;;;;;;;5073927;28;20031;-67
2022/08/31 11:03:28;;;;;;;4.85;0.80;;;;;;;;;;5086636;28;20636;-68
2022/08/31 11:06:12;;;;;;;2.30;0.70;;;;;;;;;;5092537;28;20020;-66
2022/08/31 11:08:53;;;;;;;2.40;0.68;;;;;;;;;;5090166;28;20385;-66
2022/08/31 11:11:24;;;;;;;6.88;0.70;;;;;;;;;;5092822;28;20387;-68
2022/08/31 11:14:02;;;;;;;1.85;0.70;;;;;;;;;;5079123;28;20027;-68
2022/08/31 11:16:28;;;;;;;3.45;0.63;;;;;;;;;;5099326;28;20027;-68
2022/08/31 11:19:12;;;;;;;4.32;0.70;;;;;;;;;;5092527;28;20411;-67
2022/08/31 11:21:37;;;;;;;1.75;0.80;;;;;;;;;;5091367;28;20073;-66
2022/08/31 11:24:05;;;;;;;3.88;0.68;;;;;;;;;;5086965;28;20396;-66
2022/08/31 11:26:51;;;;;;;2.47;0.70;;;;;;;;;;5092428;28;20020;-68
2022/08/31 11:29:19;;;;;;;2.25;0.60;;;;;;;;;;5049906;28;20033;-68
2022/08/31 11:31:45;;;;;;;2.13;0.73;;;;;;;;;;5079923;28;20023;-66
2022/08/31 11:34:15;;;;;;;2.55;0.60;;;;;;;;;;5088937;28;20012;-67
2022/08/31 11:36:51;;;;;;;2.63;0.50;;;;;;;;;;5091298;28;20016;-67
2022/08/31 11:39:25;;;;;;;1.45;0.60;;;;;;;;;;5091295;28;20036;-69
2022/08/31 11:41:51;;;;;;;3.20;0.60;;;;;;;;;;5088244;28;20415;-66
2022/08/31 11:44:28;;;;;;;2.63;0.80;;;;;;;;;;5077433;28;20024;-69
2022/08/31 11:47:03;;;;;;;2.53;0.80;;;;;;;;;;5091705;28;20020;-67
2022/08/31 11:49:36;;;;;;;2.97;0.88;;;;;;;;;;5091886;28;20423;-66
2022/08/31 11:52:10;;;;;;;4.13;0.50;;;;;;;;;;5088148;28;20024;-66
2022/08/31 11:54:40;;;;;;;2.33;0.70;;;;;;;;;;5075745;28;20089;-66
2022/08/31 11:57:07;;;;;;;3.35;0.60;;;;;;;;;;5073232;28;20027;-66
2022/08/31 11:59:34;;;;;;;5.35;0.80;;;;;;;;;;5090890;28;20039;-66
2022/08/31 12:02:18;;;;;;;1.75;0.70;;;;;;;;;;5088117;28;20542;-67
2022/08/31 12:04:52;;;;;;;1.75;0.70;;;;;;;;;;5078618;28;20028;-67
2022/08/31 12:07:37;;;;;;;1.25;0.60;;;;;;;;;;5090643;28;20020;-68
2022/08/31 12:10:05;;;;;;;2.60;0.77;;;;;;;;;;5090622;28;20073;-66
2022/08/31 12:12:42;;;;;;;1.50;0.60;;;;;;;;;;5081254;28;20028;-68
2022/08/31 12:15:08;;;;;;;4.05;0.68;;;;;;;;;;5090017;28;20046;-68
2022/08/31 12:17:54;;;;;;;3.53;0.88;;;;;;;;;;5094923;28;20028;-66
2022/08/31 12:20:23;;;;;;;1.83;0.73;;;;;;;;;;5091079;28;20034;-69
2022/08/31 12:26:04;;;;;;;2.20;0.80;;;;;;;;;;5090106;28;20506;-67
2022/08/31 12:28:53;;;;;;;1.40;0.60;;;;;;;;;;5078258;28;20409;-67
2022/08/31 12:31:18;;;;;;;3.65;0.68;;;;;;;;;;5079415;28;20075;-66
2022/08/31 12:33:55;;;;;;;1.52;0.60;;;;;;;;;;5090487;28;20056;-66
2022/08/31 12:36:25;;;;;;;1.83;0.60;;;;;;;;;;5087766;28;20035;-65
2022/08/31 12:39:06;;;;;;;3.83;0.70;;;;;;;;;;5091009;28;20023;-68
2022/08/31 12:41:32;;;;;;;1.40;0.70;;;;;;;;;;5071648;28;20025;-66
2022/08/31 12:43:57;;;;;;;2.00;0.70;;;;;;;;;;5089275;28;20081;-66
2022/08/31 12:46:31;;;;;;;2.53;0.60;;;;;;;;;;5092904;28;20105;-65
2022/08/31 12:49:06;;;;;;;4.20;0.70;;;;;;;;;;5095985;28;20020;-66
2022/08/31 12:51:41;;;;;;;1.27;0.50;;;;;;;;;;5095033;28;20028;-67
2022/08/31 12:54:06;;;;;;;1.90;0.60;;;;;;;;;;5095603;28;20020;-68
2022/08/31 12:56:34;;;;;;;3.40;0.60;;;;;;;;;;5093653;28;20035;-67
2022/08/31 12:59:18;;;;;;;2.53;0.70;;;;;;;;;;5076912;28;20021;-66
2022/08/31 13:01:45;;;;;;;2.22;0.70;;;;;;;;;;5088420;28;20107;-66
2022/08/31 13:04:13;;;;;;;4.50;0.60;;;;;;;;;;5071524;28;20036;-66
2022/08/31 13:06:40;;;;;;;1.65;0.43;;;;;;;;;;5092903;28;20043;-66
2022/08/31 13:09:06;;;;;;;2.85;0.60;;;;;;;;;;5096817;28;20052;-66
2022/08/31 13:11:37;;;;;;;2.42;0.70;;;;;;;;;;5093902;28;20083;-66
2022/08/31 13:14:02;;;;;;;;;;;;;;;;;;5079770;28;20021;-65
2022/08/31 13:16:27;;;;;;;0.65;0.47;;;;;;;;;;5080329;28;19936;-66
2022/08/31 13:18:57;;;;;;;1.70;0.55;;;;;;;;;;5094925;28;20100;-66
2022/08/31 13:21:23;;;;;;;3.85;0.70;;;;;;;;;;5089073;28;20028;-66
2022/08/31 13:23:49;;;;;;;5.18;0.90;;;;;;;;;;5094034;28;20391;-65
2022/08/31 13:26:19;;;;;;;3.63;0.70;;;;;;;;;;5092763;28;20149;-67
2022/08/31 13:28:58;;;;;;;2.53;0.67;;;;;;;;;;5082132;28;20032;-68
2022/08/31 13:31:26;;;;;;;1.27;0.57;;;;;;;;;;5094664;28;20524;-68
2022/08/31 13:33:55;;;;;;;4.05;0.80;;;;;;;;;;5094826;28;20554;-66
2022/08/31 13:36:30;;;;;;;2.00;0.70;;;;;;;;;;5093089;28;20093;-66
2022/08/31 13:38:56;;;;;;;2.00;0.65;;;;;;;;;;5090622;28;20020;-68
2022/08/31 13:41:26;;;;;;;1.73;0.70;;;;;;;;;;5083762;28;20046;-67
2022/08/31 13:43:57;;;;;;;1.42;0.60;;;;;;;;;;5086439;28;20020;-65
2022/08/31 13:46:24;;;;;;;1.92;0.68;;;;;;;;;;5073845;28;20024;-66
2022/08/31 13:48:57;;;;;;;3.50;0.80;;;;;;;;;;5080761;28;20082;-66
2022/08/31 13:51:24;;;;;;;2.13;0.77;;;;;;;;;;5092455;28;20024;-67
2022/08/31 13:53:53;;;;;;;1.80;0.73;;;;;;;;;;5092329;28;20024;-65
2022/08/31 13:59:23;;;;;;;3.15;0.70;;;;;;;;;;5077752;28;20498;-64
2022/08/31 14:02:00;;;;;;;1.58;0.70;;;;;;;;;;5079754;28;20039;-66
2022/08/31 14:04:37;;;;;;;1.30;0.60;;;;;;;;;;5091529;28;20107;-64
2022/08/31 14:07:03;;;;;;;4.90;0.60;;;;;;;;;;5093374;28;20028;-65
2022/08/31 14:09:28;;;;;;;3.22;0.80;;;;;;;;;;5093743;28;20016;-67
2022/08/31 14:12:04;;;;;;;1.77;0.70;;;;;;;;;;5091344;28;20060;-66
2022/08/31 14:14:38;;;;;;;2.33;0.52;;;;;;;;;;5090021;28;20042;-69
2022/08/31 14:17:05;;;;;;;3.03;0.77;;;;;;;;;;5095186;28;20391;-67
2022/08/31 14:19:31;;;;;;;1.77;0.60;;;;;;;;;;5076970;28;20063;-67
2022/08/31 14:22:12;;;;;;;2.33;0.60;;;;;;;;;;5076832;28;20042;-68
2022/08/31 14:24:37;;;;;;;8.05;1.48;;;;;;;;;;5092762;28;20484;-67
2022/08/31 14:27:02;;;;;;;3.35;0.60;;;;;;;;;;5089397;28;20107;-67
2022/08/31 14:29:28;;;;;;;1.90;0.70;;;;;;;;;;5086032;28;20136;-67
2022/08/31 14:31:53;;;;;;;5.78;0.73;;;;;;;;;;5093135;28;20469;-67
2022/08/31 14:34:23;;;;;;;3.42;0.80;;;;;;;;;;5092936;28;20020;-67
2022/08/31 14:36:51;;;;;;;3.90;0.85;;;;;;;;;;5091952;28;20046;-67
2022/08/31 14:39:17;;;;;;;4.95;0.80;;;;;;;;;;5087972;28;20023;-68
2022/08/31 14:41:44;;;;;;;2.22;0.70;;;;;;;;;;5085315;28;20441;-67
2022/08/31 14:44:10;;;;;;;2.50;0.70;;;;;;;;;;5087078;28;20633;-68
2022/08/31 14:46:37;;;;;;;3.53;0.80;;;;;;;;;;5092676;28;20092;-67
2022/08/31 14:49:02;;;;;;;1.70;0.60;;;;;;;;;;5095313;28;20494;-67
2022/08/31 14:51:29;;;;;;;1.85;0.60;;;;;;;;;;5083232;28;20037;-66
2022/08/31 14:53:57;;;;;;;2.63;0.80;;;;;;;;;;5082905;28;20428;-68
2022/08/31 14:56:28;;;;;;;3.17;0.68;;;;;;;;;;5087849;28;20020;-67
2022/08/31 14:58:53;;;;;;;5.13;0.80;;;;;;;;;;5086083;28;20103;-66
2022/08/31 15:01:19;;;;;;;3.20;0.85;;;;;;;;;;5087514;28;20112;-67
2022/08/31 15:03:44;;;;;;;2.28;0.70;;;;;;;;;;5088056;28;20032;-67
2022/08/31 15:06:13;;;;;;;3.25;0.60;;;;;;;;;;5088454;28;20454;-68
2022/08/31 15:08:39;;;;;;;5.20;0.82;;;;;;;;;;5087880;28;20139;-67